createdAt,value
2023-04-02T00:01:22.779Z,8.80
2023-04-02T00:03:59.334Z,8.80
2023-04-02T00:06:33.536Z,8.80
2023-04-02T00:09:29.651Z,8.80
2023-04-02T00:12:15.800Z,8.80
2023-04-02T00:14:54.187Z,8.80
2023-04-02T00:17:26.182Z,8.80
2023-04-02T00:20:06.845Z,8.80
2023-04-02T00:22:44.112Z,8.80
2023-04-02T00:25:15.989Z,8.70
2023-04-02T00:27:48.144Z,8.70
2023-04-02T00:30:20.004Z,8.70
2023-04-02T00:32:52.200Z,8.60
2023-04-02T00:35:28.170Z,8.70
2023-04-02T00:38:00.392Z,8.70
2023-04-02T00:40:32.329Z,8.70
2023-04-02T00:43:06.874Z,8.60
2023-04-02T00:45:39.126Z,8.60
2023-04-02T00:48:23.619Z,8.60
2023-04-02T00:50:56.974Z,8.60
2023-04-02T00:53:30.888Z,8.50
2023-04-02T00:56:04.047Z,8.50
2023-04-02T00:58:36.880Z,8.60
2023-04-02T01:01:19.086Z,8.50
2023-04-02T01:03:59.704Z,8.50
2023-04-02T01:06:37.365Z,8.50
2023-04-02T01:09:23.020Z,8.50
2023-04-02T01:12:24.863Z,8.50
2023-04-02T01:15:17.788Z,8.50
2023-04-02T01:18:13.817Z,8.50
2023-04-02T01:21:12.906Z,8.50
2023-04-02T01:23:59.667Z,8.60
2023-04-02T01:26:49.876Z,8.60
2023-04-02T01:29:42.113Z,8.60
2023-04-02T01:32:17.790Z,8.60
2023-04-02T01:34:51.434Z,8.50
2023-04-02T01:37:36.692Z,8.50
2023-04-02T01:40:20.340Z,8.50
2023-04-02T01:43:25.433Z,8.50
2023-04-02T01:45:58.464Z,8.50
2023-04-02T01:48:31.840Z,8.50
2023-04-02T01:51:07.272Z,8.50
2023-04-02T01:53:39.076Z,8.50
2023-04-02T01:56:11.020Z,8.50
2023-04-02T01:58:42.870Z,8.50
2023-04-02T02:01:18.578Z,8.50
2023-04-02T02:03:53.468Z,8.50
2023-04-02T02:06:25.576Z,8.40
2023-04-02T02:09:03.460Z,8.40
2023-04-02T02:11:36.478Z,8.40
2023-04-02T02:14:16.413Z,8.40
2023-04-02T02:16:48.977Z,8.40
2023-04-02T02:19:34.369Z,8.40
2023-04-02T02:22:39.050Z,8.40
2023-04-02T02:25:18.671Z,8.40
2023-04-02T02:27:54.577Z,8.40
2023-04-02T02:30:43.922Z,8.40
2023-04-02T02:33:41.711Z,8.40
2023-04-02T02:36:28.016Z,8.40
2023-04-02T02:39:20.392Z,8.40
2023-04-02T02:42:00.962Z,8.40
2023-04-02T02:44:43.447Z,8.40
2023-04-02T02:47:24.255Z,8.40
2023-04-02T02:50:01.313Z,8.30
2023-04-02T02:52:37.276Z,8.40
2023-04-02T02:55:23.966Z,8.40
2023-04-02T02:58:12.107Z,8.40
2023-04-02T03:00:51.777Z,8.40
2023-04-02T03:03:28.705Z,8.40
2023-04-02T03:06:10.523Z,8.40
2023-04-02T03:09:06.411Z,8.40
2023-04-02T03:12:01.992Z,8.30
2023-04-02T03:14:38.966Z,8.30
2023-04-02T03:17:26.018Z,8.30
2023-04-02T03:20:14.621Z,8.30
2023-04-02T03:22:54.575Z,8.30
2023-04-02T03:25:48.825Z,8.30
2023-04-02T03:28:25.964Z,8.30
2023-04-02T03:31:05.852Z,8.30
2023-04-02T03:33:47.175Z,8.30
2023-04-02T03:36:28.619Z,8.30
2023-04-02T03:39:13.809Z,8.30
2023-04-02T03:41:56.987Z,8.30
2023-04-02T03:44:39.062Z,8.30
2023-04-02T03:47:18.105Z,8.30
2023-04-02T03:50:00.367Z,8.20
2023-04-02T03:52:36.639Z,8.20
2023-04-02T03:55:17.397Z,8.20
2023-04-02T03:58:07.461Z,8.20
2023-04-02T04:00:57.294Z,8.20
2023-04-02T04:03:38.739Z,8.20
2023-04-02T04:06:16.920Z,8.20
2023-04-02T04:08:54.676Z,8.20
2023-04-02T04:11:44.848Z,8.20
2023-04-02T04:14:28.376Z,8.10
2023-04-02T04:17:17.485Z,8.10
2023-04-02T04:20:21.789Z,6.30
2023-04-02T04:22:56.010Z,8.10
2023-04-02T04:25:33.700Z,8.00
2023-04-02T04:28:27.790Z,8.10
2023-04-02T04:31:18.176Z,8.10
2023-04-02T04:34:04.266Z,8.10
2023-04-02T04:37:07.525Z,8.10
2023-04-02T04:39:49.190Z,8.10
2023-04-02T04:42:28.875Z,8.10
2023-04-02T04:45:23.988Z,8.10
2023-04-02T04:48:01.629Z,8.10
2023-04-02T04:50:46.262Z,8.20
2023-04-02T04:53:25.896Z,8.20
2023-04-02T04:56:12.529Z,8.20
2023-04-02T04:59:18.298Z,8.20
2023-04-02T05:02:00.494Z,8.20
2023-04-02T05:04:41.096Z,8.20
2023-04-02T05:07:29.668Z,8.20
2023-04-02T05:10:19.336Z,8.20
2023-04-02T05:13:24.862Z,8.20
2023-04-02T05:16:15.401Z,8.20
2023-04-02T05:18:56.554Z,8.20
2023-04-02T05:21:54.723Z,8.30
2023-04-02T05:24:48.697Z,8.30
2023-04-02T05:27:39.651Z,8.30
2023-04-02T05:30:22.999Z,8.30
2023-04-02T05:33:17.487Z,8.20
2023-04-02T05:35:56.214Z,8.20
2023-04-02T05:38:31.992Z,8.20
2023-04-02T05:41:18.487Z,8.20
2023-04-02T05:43:58.570Z,8.20
2023-04-02T05:46:36.979Z,8.20
2023-04-02T05:49:20.510Z,8.10
2023-04-02T05:51:57.906Z,8.20
2023-04-02T05:54:56.708Z,8.20
2023-04-02T05:57:44.466Z,8.30
2023-04-02T06:00:27.430Z,8.30
2023-04-02T06:03:07.232Z,8.30
2023-04-02T06:05:44.275Z,8.30
2023-04-02T06:08:29.785Z,8.30
2023-04-02T06:11:11.201Z,8.30
2023-04-02T06:13:45.076Z,8.30
2023-04-02T06:16:28.181Z,8.30
2023-04-02T06:19:00.337Z,8.30
2023-04-02T06:21:32.072Z,8.30
2023-04-02T06:24:06.122Z,8.30
2023-04-02T06:26:51.008Z,8.30
2023-04-02T06:29:38.196Z,8.30
2023-04-02T06:32:12.400Z,8.40
2023-04-02T06:34:47.225Z,8.50
2023-04-02T06:37:35.463Z,8.50
2023-04-02T06:40:44.683Z,8.50
2023-04-02T06:43:46.024Z,8.60
2023-04-02T06:46:57.827Z,8.60
2023-04-02T06:49:54.862Z,8.70
2023-04-02T06:52:50.629Z,8.70
2023-04-02T06:55:46.603Z,8.70
2023-04-02T06:58:20.831Z,8.80
2023-04-02T07:00:53.144Z,8.80
2023-04-02T07:03:37.688Z,8.80
2023-04-02T07:06:31.350Z,8.90
2023-04-02T07:09:05.555Z,8.90
2023-04-02T07:11:38.797Z,9.00
2023-04-02T07:14:13.036Z,9.00
2023-04-02T07:16:44.924Z,9.10
2023-04-02T07:19:20.340Z,9.10
2023-04-02T07:21:53.597Z,9.10
2023-04-02T07:24:26.743Z,9.10
2023-04-02T07:26:58.471Z,9.10
2023-04-02T07:29:30.170Z,9.10
2023-04-02T07:32:01.855Z,9.20
2023-04-02T07:34:33.547Z,9.20
2023-04-02T07:37:05.370Z,9.30
2023-04-02T07:39:38.918Z,9.30
2023-04-02T07:42:11.930Z,9.30
2023-04-02T07:44:43.654Z,9.30
2023-04-02T07:47:15.392Z,9.30
2023-04-02T07:49:47.130Z,9.30
2023-04-02T07:52:18.946Z,9.30
2023-04-02T07:54:51.046Z,9.40
2023-04-02T07:57:22.998Z,9.40
2023-04-02T07:59:56.552Z,9.50
2023-04-02T08:02:28.391Z,9.50
2023-04-02T08:05:00.441Z,9.50
2023-04-02T08:07:32.178Z,9.50
2023-04-02T08:10:04.584Z,9.50
2023-04-02T08:12:36.483Z,9.40
2023-04-02T08:15:10.181Z,9.40
2023-04-02T08:17:43.093Z,9.40
2023-04-02T08:20:21.208Z,9.30
2023-04-02T08:22:52.952Z,9.30
2023-04-02T08:25:24.828Z,9.30
2023-04-02T08:27:56.839Z,9.30
2023-04-02T08:30:28.525Z,9.30
2023-04-02T08:33:00.352Z,9.30
2023-04-02T08:35:32.541Z,9.30
2023-04-02T08:38:04.366Z,9.30
2023-04-02T08:40:39.599Z,9.30
2023-04-02T08:43:55.493Z,9.60
2023-04-02T08:46:40.198Z,9.40
2023-04-02T08:49:17.851Z,9.40
2023-04-02T08:51:49.846Z,9.40
2023-04-02T08:54:29.100Z,9.40
2023-04-02T08:57:11.564Z,9.40
2023-04-02T08:59:44.903Z,9.40
2023-04-02T09:02:40.515Z,9.30
2023-04-02T09:05:27.773Z,9.40
2023-04-02T09:08:04.950Z,9.40
2023-04-02T09:10:44.916Z,9.50
2023-04-02T09:13:23.813Z,9.50
2023-04-02T09:16:08.278Z,9.60
2023-04-02T09:18:41.554Z,9.70
2023-04-02T09:21:37.593Z,9.80
2023-04-02T09:24:13.189Z,9.90
2023-04-02T09:26:46.434Z,10.00
2023-04-02T09:29:45.748Z,10.10
2023-04-02T09:32:28.167Z,10.00
2023-04-02T09:35:25.474Z,10.00
2023-04-02T09:38:07.534Z,9.70
2023-04-02T09:41:01.995Z,9.80
2023-04-02T09:43:36.233Z,9.80
2023-04-02T09:46:18.755Z,9.90
2023-04-02T09:49:01.168Z,9.90
2023-04-02T09:51:34.987Z,9.90
2023-04-02T09:54:15.882Z,9.80
2023-04-02T09:57:04.728Z,9.80
2023-04-02T09:59:37.450Z,9.70
2023-04-02T10:02:24.166Z,9.60
2023-04-02T10:04:56.417Z,9.50
2023-04-02T10:07:44.489Z,9.20
2023-04-02T10:10:33.044Z,9.10
2023-04-02T10:13:16.338Z,9.00
2023-04-02T10:15:51.224Z,8.90
2023-04-02T10:18:31.820Z,8.90
2023-04-02T10:21:05.977Z,9.00
2023-04-02T10:23:38.223Z,9.10
2023-04-02T10:26:44.129Z,9.10
2023-04-02T10:29:51.494Z,9.20
2023-04-02T10:33:03.176Z,9.40
2023-04-02T10:36:23.964Z,9.50
2023-04-02T10:39:05.915Z,9.50
2023-04-02T10:41:42.421Z,9.40
2023-04-02T10:44:24.739Z,9.30
2023-04-02T10:47:12.530Z,9.00
2023-04-02T10:50:29.475Z,8.90
2023-04-02T10:53:17.262Z,8.80
2023-04-02T10:55:53.877Z,8.80
2023-04-02T10:58:29.199Z,8.90
2023-04-02T11:01:09.253Z,9.00
2023-04-02T11:03:49.824Z,9.10
2023-04-02T11:06:27.623Z,9.20
2023-04-02T11:09:07.421Z,9.30
2023-04-02T11:11:43.120Z,9.40
2023-04-02T11:14:20.902Z,9.40
2023-04-02T11:16:55.613Z,9.40
2023-04-02T11:19:35.911Z,9.20
2023-04-02T11:22:17.553Z,9.10
2023-04-02T11:24:54.531Z,9.00
2023-04-02T11:27:36.088Z,9.00
2023-04-02T11:30:27.037Z,9.00
2023-04-02T11:33:35.817Z,8.90
2023-04-02T11:36:46.244Z,9.00
2023-04-02T11:39:51.439Z,9.20
2023-04-02T11:42:50.023Z,9.50
2023-04-02T11:45:24.579Z,9.80
2023-04-02T11:48:03.717Z,9.80
2023-04-02T11:50:36.813Z,9.90
2023-04-02T11:53:11.597Z,10.00
2023-04-02T11:56:05.854Z,10.20
2023-04-02T11:59:04.531Z,10.50
2023-04-02T12:01:59.518Z,10.70
2023-04-02T12:04:57.474Z,10.80
2023-04-02T12:07:52.287Z,10.50
2023-04-02T12:10:54.978Z,10.50
2023-04-02T12:13:42.037Z,10.50
2023-04-02T12:16:14.607Z,10.20
2023-04-02T12:18:54.057Z,9.90
2023-04-02T12:21:29.115Z,9.60
2023-04-02T12:24:03.113Z,9.50
2023-04-02T12:26:42.266Z,9.40
2023-04-02T12:29:26.988Z,9.40
2023-04-02T12:32:00.236Z,9.40
2023-04-02T12:34:32.019Z,9.40
2023-04-02T12:37:05.438Z,9.40
2023-04-02T12:39:37.316Z,9.50
2023-04-02T12:42:29.765Z,9.50
2023-04-02T12:45:02.277Z,9.50
2023-04-02T12:47:34.356Z,9.50
2023-04-02T12:50:07.248Z,9.60
2023-04-02T12:52:45.149Z,9.90
2023-04-02T12:55:25.454Z,10.10
2023-04-02T12:57:58.700Z,10.10
2023-04-02T13:00:32.932Z,10.10
2023-04-02T13:03:04.747Z,9.90
2023-04-02T13:05:57.296Z,9.80
2023-04-02T13:08:42.050Z,9.60
2023-04-02T13:11:13.904Z,9.40
2023-04-02T13:13:48.595Z,9.10
2023-04-02T13:16:20.334Z,9.10
2023-04-02T13:18:52.287Z,9.10
2023-04-02T13:21:28.540Z,9.20
2023-04-02T13:24:00.652Z,9.20
2023-04-02T13:26:32.536Z,9.20
2023-04-02T13:29:16.908Z,9.00
2023-04-02T13:31:49.392Z,8.90
2023-04-02T13:34:21.366Z,8.90
2023-04-02T13:36:53.408Z,8.90
2023-04-02T13:39:25.947Z,8.80
2023-04-02T13:42:03.839Z,8.80
2023-04-02T13:44:37.539Z,8.80
2023-04-02T13:47:14.079Z,8.70
2023-04-02T13:49:45.824Z,8.70
2023-04-02T13:52:17.628Z,8.80
2023-04-02T13:54:53.013Z,8.70
2023-04-02T13:57:24.805Z,8.60
2023-04-02T13:59:56.582Z,8.50
2023-04-02T14:02:29.030Z,8.40
2023-04-02T14:05:37.037Z,8.40
2023-04-02T14:08:36.766Z,8.30
2023-04-02T14:11:32.037Z,8.20
2023-04-02T14:14:19.017Z,8.20
2023-04-02T14:17:21.325Z,8.10
2023-04-02T14:20:08.621Z,8.10
2023-04-02T14:22:40.430Z,7.90
2023-04-02T14:25:33.294Z,7.80
2023-04-02T14:28:27.129Z,7.80
2023-04-02T14:31:12.384Z,7.90
2023-04-02T14:33:57.517Z,7.90
2023-04-02T14:37:13.584Z,7.80
2023-04-02T14:39:55.339Z,7.80
2023-04-02T14:42:41.747Z,7.90
2023-04-02T14:45:37.782Z,8.00
2023-04-02T14:48:47.962Z,8.00
2023-04-02T14:51:43.446Z,8.10
2023-04-02T14:54:35.488Z,8.10
2023-04-02T14:57:12.535Z,8.10
2023-04-02T15:00:05.176Z,8.10
2023-04-02T15:02:47.097Z,8.20
2023-04-02T15:05:36.049Z,8.20
2023-04-02T15:08:22.596Z,8.20
2023-04-02T15:11:09.576Z,8.10
2023-04-02T15:13:48.104Z,8.10
2023-04-02T15:16:22.700Z,7.90
2023-04-02T15:18:57.300Z,7.80
2023-04-02T15:21:57.548Z,7.60
2023-04-02T15:24:56.986Z,7.60
2023-04-02T15:27:55.980Z,7.60
2023-04-02T15:30:37.075Z,7.70
2023-04-02T15:33:35.764Z,7.70
2023-04-02T15:36:10.373Z,7.70
2023-04-02T15:38:49.048Z,7.70
2023-04-02T15:41:32.092Z,7.50
2023-04-02T15:44:16.585Z,7.30
2023-04-02T15:47:07.056Z,7.20
2023-04-02T15:49:57.441Z,7.20
2023-04-02T15:52:58.202Z,7.20
2023-04-02T15:55:46.330Z,7.20
2023-04-02T15:58:38.941Z,7.20
2023-04-02T16:01:36.397Z,7.20
2023-04-02T16:04:31.993Z,7.10
2023-04-02T16:07:27.173Z,7.00
2023-04-02T16:10:11.296Z,7.10
2023-04-02T16:12:43.424Z,7.10
2023-04-02T16:15:23.549Z,7.10
2023-04-02T16:18:17.660Z,7.00
2023-04-02T16:20:51.896Z,7.00
2023-04-02T16:23:37.741Z,7.00
2023-04-02T16:26:39.659Z,6.90
2023-04-02T16:29:55.108Z,6.90
2023-04-02T16:32:42.929Z,6.90
2023-04-02T16:35:43.446Z,6.90
2023-04-02T16:38:43.691Z,6.90
2023-04-02T16:41:53.375Z,6.80
2023-04-02T16:45:12.501Z,6.70
2023-04-02T16:47:54.582Z,6.50
2023-04-02T16:50:47.610Z,6.40
2023-04-02T16:53:47.859Z,6.40
2023-04-02T16:56:37.402Z,6.30
2023-04-02T16:59:36.477Z,5.40
2023-04-02T17:02:46.034Z,6.20
2023-04-02T17:05:42.593Z,6.10
2023-04-02T17:08:17.311Z,6.00
2023-04-02T17:11:02.324Z,6.00
2023-04-02T17:13:50.701Z,6.00
2023-04-02T17:16:36.862Z,6.00
2023-04-02T17:19:14.448Z,5.90
2023-04-02T17:21:49.077Z,5.90
2023-04-02T17:24:28.563Z,5.80
2023-04-02T17:27:06.178Z,5.80
2023-04-02T17:29:47.949Z,5.70
2023-04-02T17:32:25.941Z,5.60
2023-04-02T17:35:15.907Z,5.60
2023-04-02T17:37:57.379Z,5.70
2023-04-02T17:40:33.290Z,5.70
2023-04-02T17:43:23.345Z,5.60
2023-04-02T17:46:09.311Z,5.50
2023-04-02T17:48:52.182Z,5.40
2023-04-02T17:51:31.710Z,5.40
2023-04-02T17:54:25.416Z,5.40
2023-04-02T17:57:07.416Z,5.30
2023-04-02T18:00:12.968Z,4.70
2023-04-02T18:03:21.938Z,5.30
2023-04-02T18:06:06.740Z,5.30
2023-04-02T18:09:05.717Z,5.20
2023-04-02T18:11:48.766Z,5.80
2023-04-02T18:14:48.703Z,5.10
2023-04-02T18:17:40.806Z,5.00
2023-04-02T18:20:29.061Z,5.00
2023-04-02T18:23:17.409Z,5.00
2023-04-02T18:26:19.414Z,4.90
2023-04-02T18:29:08.060Z,4.80
2023-04-02T18:31:55.312Z,4.80
2023-04-02T18:34:43.006Z,4.80
2023-04-02T18:37:43.613Z,4.80
2023-04-02T18:40:41.819Z,4.70
2023-04-02T18:43:20.788Z,4.60
2023-04-02T18:46:07.860Z,4.60
2023-04-02T18:49:11.604Z,4.60
2023-04-02T18:51:44.143Z,4.70
2023-04-02T18:54:39.357Z,4.60
2023-04-02T18:57:16.203Z,4.70
2023-04-02T18:59:58.958Z,4.70
2023-04-02T19:02:55.467Z,4.80
2023-04-02T19:05:42.105Z,4.80
2023-04-02T19:08:19.404Z,4.70
2023-04-02T19:10:59.048Z,4.70
2023-04-02T19:13:31.497Z,4.60
2023-04-02T19:16:17.709Z,4.60
2023-04-02T19:19:27.570Z,4.60
2023-04-02T19:21:59.220Z,4.60
2023-04-02T19:24:55.570Z,4.60
2023-04-02T19:27:55.045Z,4.70
2023-04-02T19:30:57.930Z,4.70
2023-04-02T19:33:49.511Z,4.70
2023-04-02T19:36:41.472Z,4.70
2023-04-02T19:39:33.697Z,4.60
2023-04-02T19:42:05.660Z,4.70
2023-04-02T19:44:43.764Z,4.70
2023-04-02T19:47:17.764Z,4.80
2023-04-02T19:49:49.609Z,4.80
2023-04-02T19:52:21.484Z,4.90
2023-04-02T19:54:53.779Z,4.80
2023-04-02T19:57:25.823Z,4.80
2023-04-02T19:59:57.655Z,4.80
2023-04-02T20:02:29.462Z,4.80
2023-04-02T20:05:02.204Z,4.80
2023-04-02T20:07:33.950Z,4.80
2023-04-02T20:10:06.340Z,4.80
2023-04-02T20:12:38.129Z,4.80
2023-04-02T20:15:10.267Z,4.80
2023-04-02T20:17:42.015Z,4.80
2023-04-02T20:20:15.990Z,4.80
2023-04-02T20:22:48.462Z,4.80
2023-04-02T20:25:20.356Z,5.50
2023-04-02T20:27:52.085Z,4.80
2023-04-02T20:30:23.831Z,4.70
2023-04-02T20:32:58.990Z,4.80
2023-04-02T20:35:34.435Z,4.70
2023-04-02T20:38:08.196Z,4.70
2023-04-02T20:40:41.486Z,4.70
2023-04-02T20:43:13.814Z,4.60
2023-04-02T20:45:54.748Z,4.60
2023-04-02T20:48:30.619Z,4.70
2023-04-02T20:51:04.924Z,4.70
2023-04-02T20:53:38.000Z,4.70
2023-04-02T20:56:15.503Z,4.60
2023-04-02T20:58:47.230Z,4.60
2023-04-02T21:01:24.678Z,4.50
2023-04-02T21:03:58.387Z,4.60
2023-04-02T21:06:32.506Z,4.60
2023-04-02T21:09:08.455Z,4.50
2023-04-02T21:11:41.556Z,4.60
2023-04-02T21:14:13.373Z,4.60
2023-04-02T21:16:45.627Z,4.60
2023-04-02T21:19:17.352Z,4.60
2023-04-02T21:21:49.075Z,4.60
2023-04-02T21:24:20.901Z,4.60
2023-04-02T21:26:52.666Z,4.60
2023-04-02T21:29:24.423Z,4.60
2023-04-02T21:31:56.192Z,4.60
2023-04-02T21:34:27.968Z,4.60
2023-04-02T21:36:59.908Z,4.60
2023-04-02T21:39:31.629Z,4.50
2023-04-02T21:42:03.652Z,4.50
2023-04-02T21:44:35.476Z,4.50
2023-04-02T21:47:07.246Z,4.50
2023-04-02T21:49:39.004Z,4.50
2023-04-02T21:52:11.795Z,4.50
2023-04-02T21:54:43.486Z,4.50
2023-04-02T21:57:17.846Z,4.40
2023-04-02T21:59:50.380Z,4.40
2023-04-02T22:02:22.231Z,4.40
2023-04-02T22:04:54.231Z,4.40
2023-04-02T22:07:26.189Z,4.40
2023-04-02T22:09:57.912Z,4.40
2023-04-02T22:12:29.619Z,4.40
2023-04-02T22:15:01.338Z,6.00
2023-04-02T22:17:33.061Z,4.40
2023-04-02T22:20:05.211Z,4.40
2023-04-02T22:22:36.901Z,4.40
2023-04-02T22:25:09.204Z,4.40
2023-04-02T22:27:41.051Z,4.40
2023-04-02T22:30:12.994Z,4.50
2023-04-02T22:32:46.408Z,4.50
2023-04-02T22:35:18.243Z,4.50
2023-04-02T22:37:50.035Z,4.50
2023-04-02T22:40:21.862Z,4.50
2023-04-02T22:42:53.604Z,4.50
2023-04-02T22:45:25.315Z,4.50
2023-04-02T22:47:57.057Z,4.50
2023-04-02T22:50:28.848Z,4.50
2023-04-02T22:53:01.268Z,4.50
2023-04-02T22:55:32.957Z,4.50
2023-04-02T22:58:04.656Z,4.50
2023-04-02T23:00:36.880Z,4.40
2023-04-02T23:03:08.828Z,4.40
2023-04-02T23:05:42.362Z,4.40
2023-04-02T23:08:14.098Z,4.40
2023-04-02T23:10:45.809Z,4.40
2023-04-02T23:13:17.540Z,4.20
2023-04-02T23:15:49.275Z,4.20
2023-04-02T23:18:21.201Z,4.30
2023-04-02T23:20:54.580Z,4.30
2023-04-02T23:23:27.006Z,4.30
2023-04-02T23:26:09.337Z,4.30
2023-04-02T23:28:41.763Z,4.30
2023-04-02T23:31:19.174Z,4.30
2023-04-02T23:33:52.162Z,4.30
2023-04-02T23:36:26.879Z,4.30
2023-04-02T23:39:01.486Z,4.30
2023-04-02T23:41:33.413Z,4.30
2023-04-02T23:44:05.804Z,4.30
2023-04-02T23:46:38.041Z,4.30
2023-04-02T23:49:12.466Z,4.30
2023-04-02T23:51:44.615Z,4.20
2023-04-02T23:54:16.609Z,4.20
2023-04-02T23:56:48.541Z,4.20
2023-04-02T23:59:20.500Z,4.20
